TLPL/UVF METAR and TAF weather

Enter ICAO airport designator
Station Type Date Time Source
TLPL METAR 2021/09/28 17:00 UTC NOAA

TLPL 281700Z 13010KT 9999 VCSH FEW017CB 32/25 Q1012 NOSIG


Station Type Date Time Source
TLPL Decoded METAR 2021/09/28 17:00 UTC NOAA

Hewanorra International Airport, Saint Lucia (TLPL) 13-45N 060-57W 10M
Sep 28, 2021 - 01:00 PM EDT / 2021.09.28 1700 UTC
Wind: from the SE (130 degrees) at 12 MPH (10 KT):0
Visibility: greater than 7 mile(s):0
Sky conditions: mostly clear
Weather: showers in the vicinity; Cumulonimbus clouds observed
Temperature: 89 F (32 C)
Heat index: 100.6 F (38.1 C):1
Dew Point: 77 F (25 C)
Relative Humidity: 66%
Pressure (altimeter): 29.88 in. Hg (1012 hPa)
ob: TLPL 281700Z 13010KT 9999 VCSH FEW017CB 32/25 Q1012 NOSIG
cycle: 17

Station Type Date Time Source
TLPL TAF 2021/09/28 18:21 UTC NOAA

TAF COR TLPL 281715Z 2818/2918 12011KT 9999 FEW018CB SCT025 PROB30
TEMPO 2819/2902 5000 TSRA SCT015CB

Example: see airport list